createdAt,value
2023-02-22T00:02:10.947Z,90.30
2023-02-22T00:04:39.659Z,90.30
2023-02-22T00:07:07.082Z,90.30
2023-02-22T00:09:34.046Z,90.30
2023-02-22T00:12:01.340Z,90.30
2023-02-22T00:14:28.560Z,90.30
2023-02-22T00:16:59.557Z,90.30
2023-02-22T00:19:28.119Z,90.30
2023-02-22T00:21:54.952Z,90.20
2023-02-22T00:24:24.515Z,90.30
2023-02-22T00:26:52.313Z,90.20
2023-02-22T00:29:19.099Z,90.20
2023-02-22T00:31:46.025Z,90.20
2023-02-22T00:34:14.121Z,90.20
2023-02-22T00:36:50.283Z,90.30
2023-02-22T00:39:17.374Z,90.30
2023-02-22T00:41:44.476Z,90.30
2023-02-22T00:44:11.762Z,90.30
2023-02-22T00:46:39.701Z,90.30
2023-02-22T00:49:06.815Z,90.40
2023-02-22T00:51:33.972Z,90.40
2023-02-22T00:54:01.138Z,90.50
2023-02-22T00:56:28.045Z,90.50
2023-02-22T00:58:54.909Z,90.60
2023-02-22T01:01:22.404Z,90.60
2023-02-22T01:03:49.327Z,90.70
2023-02-22T01:06:16.631Z,90.90
2023-02-22T01:08:47.098Z,90.70
2023-02-22T01:11:15.672Z,90.80
2023-02-22T01:13:45.279Z,90.80
2023-02-22T01:16:12.261Z,90.80
2023-02-22T01:18:39.112Z,90.80
2023-02-22T01:21:06.257Z,90.80
2023-02-22T01:23:33.234Z,90.90
2023-02-22T01:26:00.015Z,90.90
2023-02-22T01:28:29.227Z,90.90
2023-02-22T01:30:56.620Z,90.90
2023-02-22T01:33:24.473Z,90.80
2023-02-22T01:35:52.703Z,90.80
2023-02-22T01:38:19.562Z,90.80
2023-02-22T01:40:50.452Z,90.80
2023-02-22T01:43:19.579Z,91.00
2023-02-22T01:46:17.302Z,90.80
2023-02-22T01:48:49.141Z,90.80
2023-02-22T01:51:18.861Z,90.80
2023-02-22T01:54:01.924Z,90.80
2023-02-22T01:56:29.966Z,90.80
2023-02-22T01:59:02.908Z,90.80
2023-02-22T02:01:30.125Z,90.80
2023-02-22T02:03:58.437Z,90.80
2023-02-22T02:06:25.390Z,90.70
2023-02-22T02:09:05.869Z,90.70
2023-02-22T02:11:32.973Z,90.80
2023-02-22T02:14:00.146Z,90.70
2023-02-22T02:16:39.140Z,90.80
2023-02-22T02:19:09.540Z,90.90
2023-02-22T02:21:39.820Z,90.90
2023-02-22T02:24:54.411Z,90.90
2023-02-22T02:27:25.791Z,91.00
2023-02-22T02:30:30.657Z,91.00
2023-02-22T02:33:03.751Z,91.00
2023-02-22T02:35:45.142Z,90.90
2023-02-22T02:38:37.781Z,90.90
2023-02-22T02:41:11.007Z,91.00
2023-02-22T02:43:47.321Z,91.00
2023-02-22T02:46:32.111Z,91.00
2023-02-22T02:49:11.257Z,91.00
2023-02-22T02:51:44.185Z,91.00
2023-02-22T02:54:11.035Z,90.90
2023-02-22T02:56:37.853Z,90.90
2023-02-22T02:59:29.425Z,91.00
2023-02-22T03:02:18.064Z,91.00
2023-02-22T03:04:49.022Z,91.00
2023-02-22T03:07:49.325Z,91.00
2023-02-22T03:10:34.389Z,91.00
2023-02-22T03:13:09.642Z,91.10
2023-02-22T03:15:40.822Z,91.10
2023-02-22T03:18:50.073Z,91.10
2023-02-22T03:21:29.666Z,91.10
2023-02-22T03:24:02.953Z,91.10
2023-02-22T03:26:40.160Z,91.10
2023-02-22T03:29:08.465Z,91.10
2023-02-22T03:31:38.640Z,91.10
2023-02-22T03:34:17.306Z,91.10
2023-02-22T03:36:47.514Z,91.10
2023-02-22T03:39:18.426Z,91.10
2023-02-22T03:41:54.216Z,91.20
2023-02-22T03:44:25.628Z,91.20
2023-02-22T03:46:54.095Z,91.30
2023-02-22T03:49:30.993Z,91.30
2023-02-22T03:51:58.113Z,91.30
2023-02-22T03:54:27.453Z,91.40
2023-02-22T03:57:00.935Z,91.40
2023-02-22T03:59:30.149Z,91.40
2023-02-22T04:01:57.071Z,91.40
2023-02-22T04:04:24.634Z,91.40
2023-02-22T04:06:52.400Z,91.40
2023-02-22T04:09:19.311Z,91.50
2023-02-22T04:11:46.248Z,91.40
2023-02-22T04:14:13.342Z,91.40
2023-02-22T04:16:40.324Z,91.40
2023-02-22T04:19:09.472Z,91.40
2023-02-22T04:21:38.334Z,91.40
2023-02-22T04:24:07.497Z,91.50
2023-02-22T04:26:34.653Z,91.50
2023-02-22T04:29:04.311Z,91.50
2023-02-22T04:31:37.269Z,91.50
2023-02-22T04:34:04.577Z,91.50
2023-02-22T04:36:34.894Z,91.50
2023-02-22T04:39:01.870Z,91.60
2023-02-22T04:41:31.550Z,91.60
2023-02-22T04:43:58.506Z,91.60
2023-02-22T04:46:26.763Z,91.60
2023-02-22T04:48:54.231Z,91.60
2023-02-22T04:51:24.640Z,91.60
2023-02-22T04:53:59.154Z,91.70
2023-02-22T04:56:26.235Z,91.70
2023-02-22T04:58:53.127Z,91.70
2023-02-22T05:01:19.958Z,91.70
2023-02-22T05:03:47.547Z,91.70
2023-02-22T05:06:14.399Z,91.70
2023-02-22T05:08:41.232Z,91.70
2023-02-22T05:11:08.280Z,91.70
2023-02-22T05:13:35.261Z,91.70
2023-02-22T05:16:02.600Z,91.70
2023-02-22T05:18:29.784Z,91.60
2023-02-22T05:20:56.724Z,91.60
2023-02-22T05:23:23.523Z,91.60
2023-02-22T05:25:50.337Z,91.70
2023-02-22T05:28:17.182Z,91.70
2023-02-22T05:30:44.104Z,91.70
2023-02-22T05:33:10.933Z,91.70
2023-02-22T05:35:37.770Z,91.70
2023-02-22T05:38:05.415Z,91.70
2023-02-22T05:40:32.907Z,91.70
2023-02-22T05:42:59.842Z,91.80
2023-02-22T05:45:27.313Z,91.80
2023-02-22T05:47:54.535Z,91.80
2023-02-22T05:50:21.470Z,91.90
2023-02-22T05:52:51.544Z,91.90
2023-02-22T05:55:20.063Z,91.80
2023-02-22T05:57:46.945Z,91.90
2023-02-22T06:00:26.847Z,91.90
2023-02-22T06:03:05.370Z,91.90
2023-02-22T06:05:32.719Z,91.90
2023-02-22T06:08:00.489Z,91.90
2023-02-22T06:10:27.527Z,91.90
2023-02-22T06:12:54.537Z,91.90
2023-02-22T06:15:21.826Z,91.90
2023-02-22T06:17:48.679Z,91.90
2023-02-22T06:20:17.050Z,91.90
2023-02-22T06:22:44.774Z,92.00
2023-02-22T06:25:14.171Z,92.20
2023-02-22T06:27:41.004Z,92.00
2023-02-22T06:30:08.732Z,92.00
2023-02-22T06:32:35.612Z,92.00
2023-02-22T06:35:02.474Z,92.00
2023-02-22T06:37:29.234Z,92.00
2023-02-22T06:39:56.087Z,92.10
2023-02-22T06:42:24.100Z,92.10
2023-02-22T06:44:51.830Z,92.10
2023-02-22T06:47:18.704Z,92.10
2023-02-22T06:49:45.486Z,92.10
2023-02-22T06:52:12.280Z,92.10
2023-02-22T06:54:39.925Z,92.10
2023-02-22T06:57:08.461Z,92.40
2023-02-22T06:59:35.297Z,92.10
2023-02-22T07:02:03.930Z,92.20
2023-02-22T07:04:30.927Z,92.30
2023-02-22T07:06:57.771Z,92.20
2023-02-22T07:09:24.541Z,92.30
2023-02-22T07:11:51.388Z,92.50
2023-02-22T07:14:18.261Z,92.40
2023-02-22T07:16:45.069Z,92.40
2023-02-22T07:19:12.345Z,92.50
2023-02-22T07:21:39.673Z,92.50
2023-02-22T07:24:06.844Z,92.50
2023-02-22T07:26:39.900Z,92.50
2023-02-22T07:29:06.825Z,92.60
2023-02-22T07:31:37.513Z,92.60
2023-02-22T07:34:04.334Z,92.60
2023-02-22T07:36:31.322Z,92.70
2023-02-22T07:38:58.102Z,92.70
2023-02-22T07:41:25.395Z,92.70
2023-02-22T07:43:52.589Z,92.80
2023-02-22T07:46:19.427Z,92.90
2023-02-22T07:48:46.232Z,93.00
2023-02-22T07:51:16.336Z,93.20
2023-02-22T07:53:43.283Z,93.40
2023-02-22T07:56:10.306Z,93.20
2023-02-22T07:58:37.237Z,93.10
2023-02-22T08:01:04.181Z,92.90
2023-02-22T08:03:34.345Z,92.80
2023-02-22T08:06:02.988Z,92.60
2023-02-22T08:08:29.883Z,92.30
2023-02-22T08:10:56.762Z,92.30
2023-02-22T08:13:23.816Z,92.20
2023-02-22T08:15:52.082Z,92.20
2023-02-22T08:18:19.366Z,92.30
2023-02-22T08:20:47.438Z,92.40
2023-02-22T08:23:15.139Z,92.40
2023-02-22T08:25:42.002Z,92.40
2023-02-22T08:28:16.519Z,92.40
2023-02-22T08:30:43.809Z,92.50
2023-02-22T08:33:14.362Z,92.40
2023-02-22T08:35:41.505Z,92.40
2023-02-22T08:38:08.671Z,92.50
2023-02-22T08:40:36.498Z,92.40
2023-02-22T08:43:03.531Z,92.40
2023-02-22T08:45:30.823Z,92.40
2023-02-22T08:47:58.458Z,92.40
2023-02-22T08:50:30.262Z,92.30
2023-02-22T08:52:59.380Z,92.40
2023-02-22T08:55:28.197Z,92.40
2023-02-22T08:57:55.018Z,92.50
2023-02-22T09:00:24.769Z,92.50
2023-02-22T09:02:52.473Z,92.50
2023-02-22T09:05:19.423Z,92.50
2023-02-22T09:07:46.400Z,92.50
2023-02-22T09:10:23.690Z,92.50
2023-02-22T09:12:52.042Z,92.50
2023-02-22T09:15:19.169Z,92.50
2023-02-22T09:17:46.076Z,92.60
2023-02-22T09:20:13.915Z,92.60
2023-02-22T09:22:41.314Z,92.60
2023-02-22T09:25:16.690Z,92.60
2023-02-22T09:27:45.040Z,92.60
2023-02-22T09:30:26.453Z,92.70
2023-02-22T09:32:54.750Z,92.70
2023-02-22T09:35:26.965Z,92.60
2023-02-22T09:37:55.527Z,92.60
2023-02-22T09:40:25.455Z,92.60
2023-02-22T09:43:02.020Z,92.80
2023-02-22T09:45:36.985Z,92.60
2023-02-22T09:48:19.397Z,92.60
2023-02-22T09:50:48.358Z,92.50
2023-02-22T09:53:42.412Z,92.50
2023-02-22T09:56:14.820Z,92.40
2023-02-22T09:58:48.980Z,92.40
2023-02-22T10:01:18.842Z,92.40
2023-02-22T10:04:09.810Z,92.50
2023-02-22T10:06:36.670Z,92.50
2023-02-22T10:09:08.043Z,92.40
2023-02-22T10:11:54.656Z,92.50
2023-02-22T10:14:33.570Z,92.50
2023-02-22T10:17:00.562Z,92.40
2023-02-22T10:19:34.118Z,92.30
2023-02-22T10:22:19.718Z,92.40
2023-02-22T10:25:09.575Z,92.40
2023-02-22T10:27:39.385Z,92.30
2023-02-22T10:30:25.272Z,92.20
2023-02-22T10:33:22.018Z,92.20
2023-02-22T10:35:48.873Z,92.20
2023-02-22T10:38:33.227Z,92.20
2023-02-22T10:41:10.661Z,92.30
2023-02-22T10:43:37.855Z,92.30
2023-02-22T10:46:06.254Z,92.20
2023-02-22T10:48:35.488Z,92.20
2023-02-22T10:51:03.686Z,92.10
2023-02-22T10:53:30.867Z,92.10
2023-02-22T10:56:18.542Z,92.00
2023-02-22T10:58:57.689Z,92.00
2023-02-22T11:01:26.624Z,91.90
2023-02-22T11:04:11.003Z,91.90
2023-02-22T11:06:38.138Z,92.00
2023-02-22T11:09:05.829Z,92.00
2023-02-22T11:11:34.081Z,91.90
2023-02-22T11:14:02.411Z,91.80
2023-02-22T11:16:39.057Z,91.80
2023-02-22T11:19:23.147Z,91.60
2023-02-22T11:21:53.027Z,91.50
2023-02-22T11:24:21.085Z,91.50
2023-02-22T11:26:56.953Z,91.40
2023-02-22T11:29:32.417Z,91.40
2023-02-22T11:32:02.080Z,91.50
2023-02-22T11:34:33.554Z,91.50
2023-02-22T11:37:30.759Z,91.70
2023-02-22T11:40:24.017Z,91.80
2023-02-22T11:43:12.163Z,91.80
2023-02-22T11:45:44.213Z,91.80
2023-02-22T11:48:21.015Z,91.80
2023-02-22T11:51:14.454Z,91.80
2023-02-22T11:53:41.532Z,91.80
2023-02-22T11:56:28.364Z,91.80
2023-02-22T11:59:23.008Z,91.80
2023-02-22T12:01:56.811Z,91.80
2023-02-22T12:04:45.746Z,91.80
2023-02-22T12:07:48.614Z,91.90
2023-02-22T12:10:34.092Z,91.90
2023-02-22T12:13:27.073Z,91.90
2023-02-22T12:16:44.273Z,91.90
2023-02-22T12:19:26.491Z,91.90
2023-02-22T12:21:56.554Z,91.90
2023-02-22T12:24:25.507Z,91.80
2023-02-22T12:26:56.436Z,91.90
2023-02-22T12:29:43.712Z,92.20
2023-02-22T12:32:12.428Z,92.00
2023-02-22T12:34:55.199Z,92.00
2023-02-22T12:37:53.477Z,92.10
2023-02-22T12:40:24.616Z,92.10
2023-02-22T12:43:10.462Z,92.10
2023-02-22T12:45:48.274Z,92.10
2023-02-22T12:48:39.583Z,92.00
2023-02-22T12:51:19.163Z,92.10
2023-02-22T12:53:55.007Z,92.40
2023-02-22T12:56:36.630Z,92.10
2023-02-22T12:59:12.472Z,92.10
2023-02-22T13:01:44.499Z,92.20
2023-02-22T13:04:20.692Z,92.20
2023-02-22T13:07:00.380Z,92.30
2023-02-22T13:09:33.936Z,92.30
2023-02-22T13:12:07.363Z,92.30
2023-02-22T13:14:34.206Z,92.30
2023-02-22T13:17:21.559Z,92.40
2023-02-22T13:19:53.906Z,92.50
2023-02-22T13:22:44.609Z,92.40
2023-02-22T13:25:20.838Z,92.50
2023-02-22T13:27:53.712Z,92.40
2023-02-22T13:30:42.555Z,92.60
2023-02-22T13:33:15.627Z,92.70
2023-02-22T13:35:42.484Z,92.40
2023-02-22T13:38:15.208Z,92.40
2023-02-22T13:40:44.217Z,92.30
2023-02-22T13:43:41.441Z,92.40
2023-02-22T13:46:18.069Z,92.40
2023-02-22T13:49:24.094Z,92.50
2023-02-22T13:51:56.768Z,92.50
2023-02-22T13:54:42.846Z,92.40
2023-02-22T13:57:24.311Z,92.50
2023-02-22T14:00:23.161Z,92.50
2023-02-22T14:03:03.245Z,92.40
2023-02-22T14:05:39.675Z,92.20
2023-02-22T14:08:07.124Z,92.10
2023-02-22T14:10:50.515Z,91.90
2023-02-22T14:13:22.701Z,91.90
2023-02-22T14:16:04.736Z,91.90
2023-02-22T14:18:35.800Z,91.90
2023-02-22T14:21:13.274Z,91.90
2023-02-22T14:23:49.993Z,92.00
2023-02-22T14:26:29.011Z,92.00
2023-02-22T14:28:58.683Z,92.00
2023-02-22T14:31:37.968Z,92.00
2023-02-22T14:34:15.465Z,92.10
2023-02-22T14:37:05.229Z,92.40
2023-02-22T14:39:53.630Z,92.10
2023-02-22T14:42:28.208Z,92.10
2023-02-22T14:45:00.987Z,92.00
2023-02-22T14:47:39.860Z,92.00
2023-02-22T14:50:25.171Z,92.00
2023-02-22T14:53:03.363Z,92.00
2023-02-22T14:55:31.463Z,92.00
2023-02-22T14:58:22.556Z,92.00
2023-02-22T15:00:52.709Z,91.90
2023-02-22T15:03:38.718Z,91.80
2023-02-22T15:06:20.690Z,91.80
2023-02-22T15:08:50.051Z,91.80
2023-02-22T15:11:21.689Z,91.80
2023-02-22T15:13:54.868Z,91.70
2023-02-22T15:16:22.600Z,91.60
2023-02-22T15:18:57.992Z,91.60
2023-02-22T15:21:26.998Z,91.50
2023-02-22T15:23:59.512Z,91.50
2023-02-22T15:26:49.070Z,91.50
2023-02-22T15:29:31.013Z,91.50
2023-02-22T15:31:58.485Z,91.40
2023-02-22T15:34:28.597Z,91.40
2023-02-22T15:36:57.707Z,91.40
2023-02-22T15:39:27.068Z,91.30
2023-02-22T15:42:10.003Z,91.30
2023-02-22T15:44:40.651Z,91.20
2023-02-22T15:47:19.473Z,91.20
2023-02-22T15:49:46.646Z,91.20
2023-02-22T15:52:20.882Z,91.20
2023-02-22T15:54:49.469Z,91.10
2023-02-22T15:57:21.775Z,91.10
2023-02-22T15:59:51.542Z,91.00
2023-02-22T16:02:31.770Z,91.00
2023-02-22T16:05:07.568Z,91.00
2023-02-22T16:07:37.351Z,91.00
2023-02-22T16:10:09.202Z,91.00
2023-02-22T16:12:36.206Z,90.90
2023-02-22T16:15:03.252Z,91.10
2023-02-22T16:17:36.036Z,90.90
2023-02-22T16:20:24.881Z,91.00
2023-02-22T16:22:51.701Z,91.00
2023-02-22T16:25:18.577Z,91.00
2023-02-22T16:27:49.983Z,91.00
2023-02-22T16:30:29.039Z,91.00
2023-02-22T16:32:56.927Z,90.90
2023-02-22T16:35:30.655Z,90.90
2023-02-22T16:38:02.252Z,90.70
2023-02-22T16:40:44.597Z,90.60
2023-02-22T16:43:15.479Z,90.40
2023-02-22T16:45:42.710Z,90.40
2023-02-22T16:48:21.731Z,90.40
2023-02-22T16:50:50.239Z,90.20
2023-02-22T16:53:20.097Z,90.20
2023-02-22T16:55:50.838Z,90.20
2023-02-22T16:58:18.097Z,90.10
2023-02-22T17:00:45.019Z,90.10
2023-02-22T17:03:16.065Z,90.00
2023-02-22T17:05:43.145Z,90.00
2023-02-22T17:08:09.992Z,90.00
2023-02-22T17:10:36.834Z,89.90
2023-02-22T17:13:20.129Z,89.90
2023-02-22T17:15:49.264Z,89.80
2023-02-22T17:18:17.375Z,89.80
2023-02-22T17:20:44.995Z,89.80
2023-02-22T17:23:12.363Z,89.80
2023-02-22T17:25:44.081Z,89.90
2023-02-22T17:28:11.133Z,89.90
2023-02-22T17:30:38.510Z,90.00
2023-02-22T17:33:06.688Z,90.00
2023-02-22T17:35:36.741Z,90.00
2023-02-22T17:38:06.229Z,90.00
2023-02-22T17:40:34.422Z,90.10
2023-02-22T17:43:01.948Z,90.10
2023-02-22T17:45:29.100Z,90.20
2023-02-22T17:47:58.160Z,90.10
2023-02-22T17:50:25.094Z,90.10
2023-02-22T17:52:52.154Z,90.10
2023-02-22T17:55:19.882Z,90.20
2023-02-22T17:57:47.306Z,90.20
2023-02-22T18:00:16.368Z,90.20
2023-02-22T18:02:43.536Z,90.20
2023-02-22T18:05:11.421Z,90.20
2023-02-22T18:07:38.340Z,90.30
2023-02-22T18:10:05.896Z,90.30
2023-02-22T18:12:32.799Z,90.30
2023-02-22T18:14:59.584Z,90.40
2023-02-22T18:17:26.378Z,90.40
2023-02-22T18:19:53.336Z,90.50
2023-02-22T18:22:20.104Z,90.50
2023-02-22T18:24:46.994Z,90.50
2023-02-22T18:27:14.883Z,90.60
2023-02-22T18:29:42.226Z,90.70
2023-02-22T18:32:13.283Z,90.70
2023-02-22T18:34:40.209Z,90.80
2023-02-22T18:37:07.073Z,90.80
2023-02-22T18:39:40.662Z,90.90
2023-02-22T18:42:07.367Z,90.90
2023-02-22T18:44:34.140Z,91.00
2023-02-22T18:47:01.507Z,91.00
2023-02-22T18:49:29.435Z,91.20
2023-02-22T18:51:56.351Z,91.10
2023-02-22T18:54:23.186Z,91.10
2023-02-22T18:56:49.969Z,91.50
2023-02-22T18:59:16.803Z,91.90
2023-02-22T19:01:48.916Z,91.70
2023-02-22T19:04:18.312Z,91.70
2023-02-22T19:06:48.337Z,91.50
2023-02-22T19:09:15.801Z,91.50
2023-02-22T19:11:46.775Z,91.50
2023-02-22T19:14:13.719Z,91.60
2023-02-22T19:16:40.589Z,91.80
2023-02-22T19:19:07.476Z,91.80
2023-02-22T19:21:34.389Z,91.60
2023-02-22T19:24:01.633Z,91.50
2023-02-22T19:26:29.389Z,91.50
2023-02-22T19:28:57.149Z,91.50
2023-02-22T19:31:31.309Z,91.50
2023-02-22T19:34:08.731Z,91.50
2023-02-22T19:36:37.495Z,91.50
2023-02-22T19:39:04.778Z,91.50
2023-02-22T19:41:31.849Z,91.50
2023-02-22T19:43:58.751Z,91.50
2023-02-22T19:46:25.596Z,91.30
2023-02-22T19:48:52.921Z,91.20
2023-02-22T19:51:20.524Z,91.10
2023-02-22T19:53:47.519Z,90.90
2023-02-22T19:56:17.004Z,90.70
2023-02-22T19:58:46.852Z,90.60
2023-02-22T20:01:25.929Z,90.50
2023-02-22T20:03:58.514Z,90.50
2023-02-22T20:06:28.100Z,90.30
2023-02-22T20:08:55.551Z,90.40
2023-02-22T20:11:22.846Z,90.40
2023-02-22T20:13:49.696Z,90.40
2023-02-22T20:16:16.660Z,90.40
2023-02-22T20:18:44.347Z,90.40
2023-02-22T20:21:13.992Z,90.40
2023-02-22T20:23:44.368Z,90.30
2023-02-22T20:26:16.770Z,90.40
2023-02-22T20:28:43.590Z,90.40
2023-02-22T20:31:11.331Z,90.30
2023-02-22T20:33:41.902Z,90.20
2023-02-22T20:36:16.823Z,90.20
2023-02-22T20:38:43.737Z,90.10
2023-02-22T20:41:15.608Z,90.10
2023-02-22T20:43:42.947Z,90.00
2023-02-22T20:46:10.704Z,89.90
2023-02-22T20:48:37.656Z,89.80
2023-02-22T20:51:12.510Z,89.90
2023-02-22T20:53:41.842Z,90.00
2023-02-22T20:56:15.947Z,90.00
2023-02-22T20:58:43.161Z,90.00
2023-02-22T21:01:13.945Z,90.00
2023-02-22T21:03:42.216Z,90.00
2023-02-22T21:06:11.782Z,90.10
2023-02-22T21:08:38.604Z,90.10
2023-02-22T21:11:10.635Z,90.10
2023-02-22T21:13:37.491Z,90.20
2023-02-22T21:16:04.619Z,90.10
2023-02-22T21:18:31.512Z,90.10
2023-02-22T21:21:10.433Z,90.10
2023-02-22T21:23:38.273Z,90.00
2023-02-22T21:26:05.377Z,90.00
2023-02-22T21:28:50.548Z,89.90
2023-02-22T21:31:18.859Z,89.90
2023-02-22T21:33:48.041Z,89.80
2023-02-22T21:36:14.909Z,89.80
2023-02-22T21:38:42.578Z,90.10
2023-02-22T21:41:16.543Z,89.60
2023-02-22T21:43:44.374Z,89.50
2023-02-22T21:46:11.364Z,89.50
2023-02-22T21:48:48.854Z,89.40
2023-02-22T21:51:17.331Z,89.40
2023-02-22T21:53:52.442Z,89.30
2023-02-22T21:56:29.590Z,89.30
2023-02-22T21:59:00.950Z,89.30
2023-02-22T22:01:36.298Z,89.30
2023-02-22T22:04:05.483Z,89.30
2023-02-22T22:06:33.029Z,89.10
2023-02-22T22:09:00.182Z,89.10
2023-02-22T22:11:27.155Z,89.10
2023-02-22T22:13:57.638Z,89.00
2023-02-22T22:16:27.148Z,89.00
2023-02-22T22:18:54.956Z,88.90
2023-02-22T22:21:22.813Z,89.40
2023-02-22T22:23:50.165Z,88.90
2023-02-22T22:26:18.124Z,88.90
2023-02-22T22:28:46.396Z,89.00
2023-02-22T22:31:13.759Z,88.90
2023-02-22T22:33:41.315Z,88.90
2023-02-22T22:36:09.373Z,88.90
2023-02-22T22:38:39.555Z,88.90
2023-02-22T22:41:07.581Z,88.80
2023-02-22T22:43:35.307Z,88.80
2023-02-22T22:46:05.658Z,89.40
2023-02-22T22:48:36.075Z,88.90
2023-02-22T22:51:09.829Z,89.00
2023-02-22T22:53:41.244Z,88.90
2023-02-22T22:56:19.014Z,88.80
2023-02-22T22:58:50.485Z,88.80
2023-02-22T23:01:19.841Z,88.70
2023-02-22T23:03:55.138Z,88.90
2023-02-22T23:06:25.006Z,88.90
2023-02-22T23:08:59.988Z,88.80
2023-02-22T23:11:28.794Z,88.50
2023-02-22T23:13:56.435Z,88.40
2023-02-22T23:16:24.032Z,88.80
2023-02-22T23:18:51.492Z,88.20
2023-02-22T23:21:19.675Z,88.20
2023-02-22T23:23:51.580Z,88.20
2023-02-22T23:26:18.421Z,88.30
2023-02-22T23:28:47.012Z,88.30
2023-02-22T23:31:16.820Z,88.30
2023-02-22T23:33:44.649Z,88.80
2023-02-22T23:36:12.551Z,88.30
2023-02-22T23:38:39.986Z,88.30
2023-02-22T23:41:08.918Z,88.40
2023-02-22T23:43:40.408Z,88.40
2023-02-22T23:46:11.172Z,88.40
2023-02-22T23:48:39.570Z,88.50
2023-02-22T23:51:09.212Z,88.50
2023-02-22T23:53:39.215Z,88.60
2023-02-22T23:56:10.007Z,88.70
2023-02-22T23:58:38.016Z,88.80
